This is the latest recevied weather packets stored in our database for station/object N7NIP. If no packets are shown the sender has not sent any weather packets the latest 10 day(s).
| Time | Temp. | Humidity | Pressure | Rain* | Wind** | Luminosity | Snow |
|---|---|---|---|---|---|---|---|
| 1777779622 | 16.67° C | 62% | 1027.8 hPa | 0 mm | - | 0 W/m² | - |
| 1777779319 | 16.67° C | 59% | 1027.7 hPa | 0 mm | - | 1 W/m² | - |
| 1777779017 | 16.67° C | 60% | 1027.6 hPa | 0 mm | - | 2 W/m² | - |
| 1777778716 | 16.67° C | 59% | 1027.5 hPa | 0 mm | - | 3 W/m² | - |
| 1777778414 | 17.22° C | 58% | 1027.5 hPa | 0 mm | - | 5 W/m² | - |
| 1777778111 | 17.22° C | 57% | 1027.3 hPa | 0 mm | - | 8 W/m² | - |
| 1777777808 | 17.78° C | 56% | 1027.3 hPa | 0 mm | - | 11 W/m² | - |
| 1777777504 | 18.33° C | 54% | 1027.3 hPa | 0 mm | - | 14 W/m² | - |
| 1777777201 | 18.33° C | 53% | 1027.2 hPa | 0 mm | - | 17 W/m² | - |
| 1777776897 | 18.89° C | 53% | 1027.2 hPa | 0 mm | - | 21 W/m² | - |
| 1777776595 | 18.89° C | 53% | 1027.2 hPa | 0 mm | - | 25 W/m² | - |
| 1777776291 | 19.44° C | 50% | 1027.2 hPa | 0 mm | - | 28 W/m² | - |
| 1777775989 | 19.44° C | 50% | 1027.4 hPa | 0 mm | - | 32 W/m² | - |
| 1777775685 | 20° C | 49% | 1027.1 hPa | 0 mm | - | 35 W/m² | - |
| 1777775382 | 20° C | 47% | 1027.2 hPa | 0 mm | - | 38 W/m² | - |
| 1777775077 | 20° C | 46% | 1027.3 hPa | 0 mm | - | 41 W/m² | - |
| 1777774774 | 20° C | 47% | 1027.3 hPa | 0 mm | - | 43 W/m² | - |
| 1777774470 | 20.56° C | 46% | 1026.8 hPa | 0 mm | - | 46 W/m² | - |
| 1777774168 | 20.56° C | 45% | 1027.4 hPa | 0 mm | - | 48 W/m² | - |
| 1777773865 | 20.56° C | 44% | 1027.1 hPa | 0 mm | - | 51 W/m² | - |
| 1777773561 | 21.11° C | 45% | 1027.2 hPa | 0 mm | - | 55 W/m² | - |
| 1777773259 | 21.67° C | 43% | 1027.4 hPa | 0 mm | - | 57 W/m² | - |
| 1777772954 | 22.22° C | 44% | 1027.5 hPa | 0 mm | - | 82 W/m² | - |
| 1777772652 | 22.22° C | 42% | 1027.4 hPa | 0 mm | - | 89 W/m² | - |
| 1777772350 | 22.78° C | 45% | 1027.3 hPa | 0 mm | - | 149 W/m² | - |
* Rain latest hour (hover to see other rain measurements)
** Current wind speed in m/s (hover to see current wind gust speed)